sensor_id;sensor_type;location;lat;lon;timestamp;pressure;altitude;pressure_sealevel;temperature;humidity
26861;BME280;37676;46.956;7.430;2022-08-20T00:01:00;95508.66;;;21.55;61.11
26861;BME280;37676;46.956;7.430;2022-08-20T00:03:35;95533.28;;;21.75;61.18
26861;BME280;37676;46.956;7.430;2022-08-20T00:06:14;95540.28;;;21.74;61.02
26861;BME280;37676;46.956;7.430;2022-08-20T00:08:40;95534.59;;;21.74;61.39
26861;BME280;37676;46.956;7.430;2022-08-20T00:11:08;95492.94;;;21.39;61.01
26861;BME280;37676;46.956;7.430;2022-08-20T00:13:43;95521.38;;;21.69;61.32
26861;BME280;37676;46.956;7.430;2022-08-20T00:16:11;95529.50;;;21.73;61.33
26861;BME280;37676;46.956;7.430;2022-08-20T00:18:37;95537.81;;;21.71;61.43
26861;BME280;37676;46.956;7.430;2022-08-20T00:21:07;95531.56;;;21.72;61.20
26861;BME280;37676;46.956;7.430;2022-08-20T00:23:39;95530.03;;;21.71;61.20
26861;BME280;37676;46.956;7.430;2022-08-20T00:26:05;95528.53;;;21.70;61.44
26861;BME280;37676;46.956;7.430;2022-08-20T00:28:31;95517.22;;;21.70;61.53
26861;BME280;37676;46.956;7.430;2022-08-20T00:30:57;95520.03;;;21.70;61.40
26861;BME280;37676;46.956;7.430;2022-08-20T00:33:23;95517.97;;;21.71;61.27
26861;BME280;37676;46.956;7.430;2022-08-20T00:35:52;95521.53;;;21.71;61.10
26861;BME280;37676;46.956;7.430;2022-08-20T00:38:19;95298.00;;;20.06;61.15
26861;BME280;37676;46.956;7.430;2022-08-20T00:40:49;95513.22;;;21.58;61.25
26861;BME280;37676;46.956;7.430;2022-08-20T00:46:18;95492.97;;;21.46;61.32
26861;BME280;37676;46.956;7.430;2022-08-20T00:48:49;95520.22;;;21.64;61.54
26861;BME280;37676;46.956;7.430;2022-08-20T00:53:52;95102.22;;;18.83;61.24
26861;BME280;37676;46.956;7.430;2022-08-20T00:56:18;95479.50;;;21.32;61.28
26861;BME280;37676;46.956;7.430;2022-08-20T00:58:43;95524.91;;;21.62;61.38
26861;BME280;37676;46.956;7.430;2022-08-20T01:01:09;95523.22;;;21.59;61.30
26861;BME280;37676;46.956;7.430;2022-08-20T01:03:35;95520.38;;;21.59;61.40
26861;BME280;37676;46.956;7.430;2022-08-20T01:06:00;95522.66;;;21.60;61.43
26861;BME280;37676;46.956;7.430;2022-08-20T01:08:26;95512.63;;;21.52;61.49
26861;BME280;37676;46.956;7.430;2022-08-20T01:10:53;95532.69;;;21.61;61.52
26861;BME280;37676;46.956;7.430;2022-08-20T01:13:34;95525.88;;;21.64;61.40
26861;BME280;37676;46.956;7.430;2022-08-20T01:16:01;95529.69;;;21.67;61.57
26861;BME280;37676;46.956;7.430;2022-08-20T01:18:28;95436.91;;;21.02;61.63
26861;BME280;37676;46.956;7.430;2022-08-20T01:20:57;95296.34;;;20.10;61.27
26861;BME280;37676;46.956;7.430;2022-08-20T01:23:44;95529.69;;;21.67;61.54
26861;BME280;37676;46.956;7.430;2022-08-20T01:26:20;95233.00;;;19.70;61.25
26861;BME280;37676;46.956;7.430;2022-08-20T01:28:50;95494.44;;;21.40;61.55
26861;BME280;37676;46.956;7.430;2022-08-20T01:31:22;95465.81;;;21.08;61.59
26861;BME280;37676;46.956;7.430;2022-08-20T01:33:50;95529.28;;;21.63;61.57
26861;BME280;37676;46.956;7.430;2022-08-20T01:36:17;95531.19;;;21.68;61.38
26861;BME280;37676;46.956;7.430;2022-08-20T01:38:45;95526.84;;;21.67;61.49
26861;BME280;37676;46.956;7.430;2022-08-20T01:43:57;95500.94;;;21.55;61.64
26861;BME280;37676;46.956;7.430;2022-08-20T01:46:33;95508.06;;;21.49;61.57
26861;BME280;37676;46.956;7.430;2022-08-20T01:49:06;95530.81;;;21.72;61.64
26861;BME280;37676;46.956;7.430;2022-08-20T01:51:32;95530.03;;;21.71;61.65
26861;BME280;37676;46.956;7.430;2022-08-20T01:53:58;95530.03;;;21.71;61.46
26861;BME280;37676;46.956;7.430;2022-08-20T01:56:28;95534.41;;;21.72;61.48
26861;BME280;37676;46.956;7.430;2022-08-20T01:58:56;95534.41;;;21.72;61.40
26861;BME280;37676;46.956;7.430;2022-08-20T02:01:26;95534.41;;;21.72;61.52
26861;BME280;37676;46.956;7.430;2022-08-20T02:03:53;95530.81;;;21.72;61.58
26861;BME280;37676;46.956;7.430;2022-08-20T02:06:20;95528.75;;;21.72;61.50
26861;BME280;37676;46.956;7.430;2022-08-20T02:08:51;95529.31;;;21.71;61.87
26861;BME280;37676;46.956;7.430;2022-08-20T02:11:17;95527.72;;;21.54;61.44
26861;BME280;37676;46.956;7.430;2022-08-20T02:13:42;95523.06;;;21.72;61.65
26861;BME280;37676;46.956;7.430;2022-08-20T02:16:08;95520.25;;;21.72;61.70
26861;BME280;37676;46.956;7.430;2022-08-20T02:18:33;95518.19;;;21.73;61.64
26861;BME280;37676;46.956;7.430;2022-08-20T02:20:59;95122.63;;;18.97;61.43
26861;BME280;37676;46.956;7.430;2022-08-20T02:23:24;95517.63;;;21.74;61.62
26861;BME280;37676;46.956;7.430;2022-08-20T02:25:50;95514.97;;;21.76;61.75
26861;BME280;37676;46.956;7.430;2022-08-20T02:28:19;95504.19;;;21.67;61.73
26861;BME280;37676;46.956;7.430;2022-08-20T02:30:48;95507.78;;;21.75;61.78
26861;BME280;37676;46.956;7.430;2022-08-20T02:33:17;95084.25;;;18.94;61.28
26861;BME280;37676;46.956;7.430;2022-08-20T02:35:46;95474.28;;;21.51;61.62
26861;BME280;37676;46.956;7.430;2022-08-20T02:38:12;95509.13;;;21.74;61.57
26861;BME280;37676;46.956;7.430;2022-08-20T02:40:40;95486.81;;;21.63;61.66
26861;BME280;37676;46.956;7.430;2022-08-20T02:43:05;95466.75;;;21.53;61.50
26861;BME280;37676;46.956;7.430;2022-08-20T02:45:32;95482.44;;;21.62;61.46
26861;BME280;37676;46.956;7.430;2022-08-20T02:48:01;95502.47;;;21.64;61.39
26861;BME280;37676;46.956;7.430;2022-08-20T02:50:27;95505.88;;;21.70;61.57
26861;BME280;37676;46.956;7.430;2022-08-20T02:52:52;95481.72;;;21.61;61.52
26861;BME280;37676;46.956;7.430;2022-08-20T02:55:19;95466.00;;;21.53;61.51
26861;BME280;37676;46.956;7.430;2022-08-20T02:57:44;95495.88;;;21.69;61.47
26861;BME280;37676;46.956;7.430;2022-08-20T03:00:13;95488.91;;;21.70;61.74
26861;BME280;37676;46.956;7.430;2022-08-20T03:02:39;95090.31;;;18.98;61.40
26861;BME280;37676;46.956;7.430;2022-08-20T03:05:06;95490.75;;;21.67;61.65
26861;BME280;37676;46.956;7.430;2022-08-20T03:07:31;95183.13;;;19.65;61.49
26861;BME280;37676;46.956;7.430;2022-08-20T03:09:57;95460.91;;;21.51;61.64
26861;BME280;37676;46.956;7.430;2022-08-20T03:12:22;95488.50;;;21.66;61.58
26861;BME280;37676;46.956;7.430;2022-08-20T03:14:48;95410.16;;;21.10;61.61
26861;BME280;37676;46.956;7.430;2022-08-20T03:17:14;95237.34;;;19.99;61.74
26861;BME280;37676;46.956;7.430;2022-08-20T03:19:40;95484.38;;;21.67;61.69
26861;BME280;37676;46.956;7.430;2022-08-20T03:22:06;95465.06;;;21.50;61.72
26861;BME280;37676;46.956;7.430;2022-08-20T03:24:31;95492.66;;;21.65;61.74
26861;BME280;37676;46.956;7.430;2022-08-20T03:26:56;95493.97;;;21.64;61.38
26861;BME280;37676;46.956;7.430;2022-08-20T03:29:21;95300.47;;;20.37;61.57
26861;BME280;37676;46.956;7.430;2022-08-20T03:31:47;95493.41;;;21.65;61.53
26861;BME280;37676;46.956;7.430;2022-08-20T03:34:12;95497.56;;;21.64;61.59
26861;BME280;37676;46.956;7.430;2022-08-20T03:36:37;95498.13;;;21.63;61.73
26861;BME280;37676;46.956;7.430;2022-08-20T03:39:05;95489.63;;;21.63;61.63
26861;BME280;37676;46.956;7.430;2022-08-20T03:41:31;95270.25;;;20.17;61.57
26861;BME280;37676;46.956;7.430;2022-08-20T03:43:57;95336.19;;;20.27;61.65
26861;BME280;37676;46.956;7.430;2022-08-20T03:46:22;95469.56;;;21.46;61.72
26861;BME280;37676;46.956;7.430;2022-08-20T03:48:48;95495.28;;;21.63;61.60
26861;BME280;37676;46.956;7.430;2022-08-20T03:51:13;95439.63;;;21.15;61.50
26861;BME280;37676;46.956;7.430;2022-08-20T03:53:38;95493.03;;;21.61;61.47
26861;BME280;37676;46.956;7.430;2022-08-20T03:56:05;95493.78;;;21.62;61.69
26861;BME280;37676;46.956;7.430;2022-08-20T03:58:32;95489.63;;;21.63;61.64
26861;BME280;37676;46.956;7.430;2022-08-20T04:00:57;95500.19;;;21.62;61.87
26861;BME280;37676;46.956;7.430;2022-08-20T04:03:23;95450.47;;;21.39;61.51
26861;BME280;37676;46.956;7.430;2022-08-20T04:05:49;95424.16;;;21.16;61.63
26861;BME280;37676;46.956;7.430;2022-08-20T04:08:19;95488.31;;;21.64;61.73
26861;BME280;37676;46.956;7.430;2022-08-20T04:10:45;95488.31;;;21.64;61.78
26861;BME280;37676;46.956;7.430;2022-08-20T04:13:15;95494.72;;;21.64;61.73
26861;BME280;37676;46.956;7.430;2022-08-20T04:15:41;95492.47;;;21.63;61.79
26861;BME280;37676;46.956;7.430;2022-08-20T04:18:08;95488.88;;;21.62;61.94
26861;BME280;37676;46.956;7.430;2022-08-20T04:20:36;95498.88;;;21.63;61.73
26861;BME280;37676;46.956;7.430;2022-08-20T04:23:02;95500.97;;;21.63;61.33
26861;BME280;37676;46.956;7.430;2022-08-20T04:25:29;95172.03;;;19.39;61.72
26861;BME280;37676;46.956;7.430;2022-08-20T04:27:56;95507.94;;;21.62;61.67
26861;BME280;37676;46.956;7.430;2022-08-20T04:30:22;95502.47;;;21.64;61.82
26861;BME280;37676;46.956;7.430;2022-08-20T04:32:50;95534.94;;;21.63;62.10
26861;BME280;37676;46.956;7.430;2022-08-20T04:35:16;95508.88;;;21.64;61.87
26861;BME280;37676;46.956;7.430;2022-08-20T04:37:44;95505.50;;;21.66;61.98
26861;BME280;37676;46.956;7.430;2022-08-20T04:40:14;95508.13;;;21.64;61.62
26861;BME280;37676;46.956;7.430;2022-08-20T04:42:58;95304.59;;;20.29;61.71
26861;BME280;37676;46.956;7.430;2022-08-20T04:45:24;95233.00;;;19.70;61.56
26861;BME280;37676;46.956;7.430;2022-08-20T04:47:50;95512.28;;;21.63;61.91
26861;BME280;37676;46.956;7.430;2022-08-20T04:50:18;95507.72;;;21.60;61.86
26861;BME280;37676;46.956;7.430;2022-08-20T04:52:44;95315.13;;;20.28;61.95
26861;BME280;37676;46.956;7.430;2022-08-20T04:55:09;95512.28;;;21.63;61.93
26861;BME280;37676;46.956;7.430;2022-08-20T04:57:35;95514.34;;;21.62;61.79
26861;BME280;37676;46.956;7.430;2022-08-20T05:00:06;95454.56;;;21.23;61.73
26861;BME280;37676;46.956;7.430;2022-08-20T05:02:32;95482.34;;;21.32;61.75
26861;BME280;37676;46.956;7.430;2022-08-20T05:05:00;95516.78;;;21.58;61.91
26861;BME280;37676;46.956;7.430;2022-08-20T05:07:25;95292.16;;;20.04;61.63
26861;BME280;37676;46.956;7.430;2022-08-20T05:09:50;95549.25;;;21.57;62.03
26861;BME280;37676;46.956;7.430;2022-08-20T05:12:16;95481.25;;;21.07;61.98
26861;BME280;37676;46.956;7.430;2022-08-20T05:14:42;95530.75;;;21.56;61.93
26861;BME280;37676;46.956;7.430;2022-08-20T05:17:08;95464.88;;;21.13;61.84
26861;BME280;37676;46.956;7.430;2022-08-20T05:19:34;95526.97;;;21.54;62.00
26861;BME280;37676;46.956;7.430;2022-08-20T05:22:02;95495.16;;;21.33;61.99
26861;BME280;37676;46.956;7.430;2022-08-20T05:24:27;95291.59;;;19.77;61.95
26861;BME280;37676;46.956;7.430;2022-08-20T05:26:53;95459.56;;;21.02;61.92
26861;BME280;37676;46.956;7.430;2022-08-20T05:29:20;95517.88;;;21.48;62.16
26861;BME280;37676;46.956;7.430;2022-08-20T05:31:46;95550.41;;;21.62;61.99
26861;BME280;37676;46.956;7.430;2022-08-20T05:34:11;95554.75;;;21.63;61.99
26861;BME280;37676;46.956;7.430;2022-08-20T05:36:48;95477.34;;;21.10;62.13
26861;BME280;37676;46.956;7.430;2022-08-20T05:39:15;95565.88;;;21.61;62.07
26861;BME280;37676;46.956;7.430;2022-08-20T05:41:41;95563.63;;;21.59;62.28
26861;BME280;37676;46.956;7.430;2022-08-20T05:44:08;95575.69;;;21.60;62.32
26861;BME280;37676;46.956;7.430;2022-08-20T05:46:39;95567.03;;;21.58;62.23
26861;BME280;37676;46.956;7.430;2022-08-20T05:49:17;95574.19;;;21.59;62.15
26861;BME280;37676;46.956;7.430;2022-08-20T05:51:44;95358.22;;;20.21;62.15
26861;BME280;37676;46.956;7.430;2022-08-20T05:54:10;95551.47;;;21.44;62.29
26861;BME280;37676;46.956;7.430;2022-08-20T05:56:36;95573.06;;;21.62;62.47
26861;BME280;37676;46.956;7.430;2022-08-20T05:59:03;95317.72;;;19.98;62.16
26861;BME280;37676;46.956;7.430;2022-08-20T06:01:30;95541.09;;;21.46;62.51
26861;BME280;37676;46.956;7.430;2022-08-20T06:03:56;95568.91;;;21.63;62.30
26861;BME280;37676;46.956;7.430;2022-08-20T06:06:40;95434.09;;;20.73;62.44
26861;BME280;37676;46.956;7.430;2022-08-20T06:09:06;95576.09;;;21.64;62.38
26861;BME280;37676;46.956;7.430;2022-08-20T06:11:31;95490.31;;;21.05;62.57
26861;BME280;37676;46.956;7.430;2022-08-20T06:13:58;95551.66;;;21.46;62.73
26861;BME280;37676;46.956;7.430;2022-08-20T06:16:23;95541.25;;;21.41;62.61
26861;BME280;37676;46.956;7.430;2022-08-20T06:18:48;95448.84;;;20.80;62.58
26861;BME280;37676;46.956;7.430;2022-08-20T06:21:14;95285.13;;;19.69;62.47
26861;BME280;37676;46.956;7.430;2022-08-20T06:23:39;95570.44;;;21.64;62.63
26861;BME280;37676;46.956;7.430;2022-08-20T06:26:06;95560.22;;;21.61;62.95
26861;BME280;37676;46.956;7.430;2022-08-20T06:28:34;95568.34;;;21.64;62.36
26861;BME280;37676;46.956;7.430;2022-08-20T06:30:59;95332.16;;;20.15;62.68
26861;BME280;37676;46.956;7.430;2022-08-20T06:33:24;95496.25;;;21.22;62.94
26861;BME280;37676;46.956;7.430;2022-08-20T06:35:50;95554.75;;;21.63;62.96
26861;BME280;37676;46.956;7.430;2022-08-20T06:38:15;95546.59;;;21.52;63.02
26861;BME280;37676;46.956;7.430;2022-08-20T06:40:40;95168.91;;;19.01;62.92
26861;BME280;37676;46.956;7.430;2022-08-20T06:43:06;95384.13;;;20.40;62.54
26861;BME280;37676;46.956;7.430;2022-08-20T06:45:33;95552.47;;;21.54;63.36
26861;BME280;37676;46.956;7.430;2022-08-20T06:48:04;95551.13;;;21.55;63.18
26861;BME280;37676;46.956;7.430;2022-08-20T06:50:33;95456.41;;;20.85;63.14
26861;BME280;37676;46.956;7.430;2022-08-20T06:53:06;95528.41;;;21.40;63.36
26861;BME280;37676;46.956;7.430;2022-08-20T06:55:32;95557.91;;;21.52;63.25
26861;BME280;37676;46.956;7.430;2022-08-20T06:58:00;95561.31;;;21.50;63.52
26861;BME280;37676;46.956;7.430;2022-08-20T07:00:27;95514.91;;;21.18;63.45
26861;BME280;37676;46.956;7.430;2022-08-20T07:02:53;95487.41;;;20.98;63.38
26861;BME280;37676;46.956;7.430;2022-08-20T07:05:18;95451.25;;;20.76;63.53
26861;BME280;37676;46.956;7.430;2022-08-20T07:07:46;95564.34;;;21.52;63.34
26861;BME280;37676;46.956;7.430;2022-08-20T07:10:14;95577.94;;;21.54;63.45
26861;BME280;37676;46.956;7.430;2022-08-20T07:12:41;95318.22;;;19.89;63.20
26861;BME280;37676;46.956;7.430;2022-08-20T07:15:09;95509.75;;;21.09;63.24
26861;BME280;37676;46.956;7.430;2022-08-20T07:17:36;95573.97;;;21.57;63.23
26861;BME280;37676;46.956;7.430;2022-08-20T07:20:10;95568.53;;;21.59;63.10
26861;BME280;37676;46.956;7.430;2022-08-20T07:22:36;95485.97;;;21.04;63.18
26861;BME280;37676;46.956;7.430;2022-08-20T07:25:06;95522.72;;;21.32;63.21
26861;BME280;37676;46.956;7.430;2022-08-20T07:27:32;95574.59;;;21.63;63.35
26861;BME280;37676;46.956;7.430;2022-08-20T07:29:58;95588.94;;;21.65;63.40
26861;BME280;37676;46.956;7.430;2022-08-20T07:32:43;95462.19;;;21.00;63.34
26861;BME280;37676;46.956;7.430;2022-08-20T07:35:12;95546.59;;;21.52;63.50
26861;BME280;37676;46.956;7.430;2022-08-20T07:37:41;95285.25;;;19.84;63.58
26861;BME280;37676;46.956;7.430;2022-08-20T07:40:11;95575.06;;;21.82;63.80
26861;BME280;37676;46.956;7.430;2022-08-20T07:42:37;95552.53;;;21.69;63.85
26861;BME280;37676;46.956;7.430;2022-08-20T07:45:11;95480.25;;;21.25;63.88
26861;BME280;37676;46.956;7.430;2022-08-20T07:47:38;95580.38;;;21.93;63.92
26861;BME280;37676;46.956;7.430;2022-08-20T07:50:05;95524.19;;;21.61;63.94
26861;BME280;37676;46.956;7.430;2022-08-20T07:52:31;95402.09;;;20.79;63.71
26861;BME280;37676;46.956;7.430;2022-08-20T07:55:00;95467.59;;;21.26;63.70
26861;BME280;37676;46.956;7.430;2022-08-20T07:57:25;95586.84;;;22.01;63.74
26861;BME280;37676;46.956;7.430;2022-08-20T07:59:50;95585.16;;;22.06;63.81
26861;BME280;37676;46.956;7.430;2022-08-20T08:02:17;95583.47;;;22.10;63.76
26861;BME280;37676;46.956;7.430;2022-08-20T08:04:42;95342.75;;;20.50;63.85
26861;BME280;37676;46.956;7.430;2022-08-20T08:07:08;95438.81;;;21.07;64.01
26861;BME280;37676;46.956;7.430;2022-08-20T08:09:34;95513.25;;;21.73;64.06
26861;BME280;37676;46.956;7.430;2022-08-20T08:12:01;95352.47;;;20.70;63.83
26861;BME280;37676;46.956;7.430;2022-08-20T08:14:29;95593.34;;;22.24;63.92
26861;BME280;37676;46.956;7.430;2022-08-20T08:16:57;95365.34;;;20.79;63.66
26861;BME280;37676;46.956;7.430;2022-08-20T08:19:25;95602.56;;;22.17;63.67
26861;BME280;37676;46.956;7.430;2022-08-20T08:21:51;95589.56;;;22.29;63.86
26861;BME280;37676;46.956;7.430;2022-08-20T08:24:16;95585.22;;;22.28;63.81
26861;BME280;37676;46.956;7.430;2022-08-20T08:26:42;95164.78;;;19.51;63.95
26861;BME280;37676;46.956;7.430;2022-08-20T08:29:08;95624.72;;;22.34;64.20
26861;BME280;37676;46.956;7.430;2022-08-20T08:31:33;95578.81;;;22.35;64.31
26861;BME280;37676;46.956;7.430;2022-08-20T08:33:59;95583.16;;;22.36;64.16
26861;BME280;37676;46.956;7.430;2022-08-20T08:36:24;95582.03;;;22.39;64.12
26861;BME280;37676;46.956;7.430;2022-08-20T08:38:51;95591.50;;;22.42;64.13
26861;BME280;37676;46.956;7.430;2022-08-20T08:41:27;95552.53;;;22.27;64.09
26861;BME280;37676;46.956;7.430;2022-08-20T08:44:03;95573.34;;;22.45;64.39
26861;BME280;37676;46.956;7.430;2022-08-20T08:46:31;95584.13;;;22.46;64.38
26861;BME280;37676;46.956;7.430;2022-08-20T08:48:58;95332.34;;;20.81;64.05
26861;BME280;37676;46.956;7.430;2022-08-20T08:51:36;95344.81;;;20.86;64.04
26861;BME280;37676;46.956;7.430;2022-08-20T08:54:04;95456.97;;;21.62;64.21
26861;BME280;37676;46.956;7.430;2022-08-20T08:56:29;95593.78;;;22.51;64.45
26861;BME280;37676;46.956;7.430;2022-08-20T08:59:04;95591.91;;;22.53;64.38
26861;BME280;37676;46.956;7.430;2022-08-20T09:01:32;95593.19;;;22.52;64.07
26861;BME280;37676;46.956;7.430;2022-08-20T09:04:01;95582.63;;;22.53;64.36
26861;BME280;37676;46.956;7.430;2022-08-20T09:06:26;95597.56;;;22.53;64.31
26861;BME280;37676;46.956;7.430;2022-08-20T09:08:58;95380.00;;;21.13;63.94
26861;BME280;37676;46.956;7.430;2022-08-20T09:11:25;95595.69;;;22.56;64.33
26861;BME280;37676;46.956;7.430;2022-08-20T09:13:51;95594.94;;;22.55;64.19
26861;BME280;37676;46.956;7.430;2022-08-20T09:16:19;95593.81;;;22.58;64.20
26861;BME280;37676;46.956;7.430;2022-08-20T09:18:45;95596.84;;;22.60;64.10
26861;BME280;37676;46.956;7.430;2022-08-20T09:21:10;95599.09;;;22.62;64.13
26861;BME280;37676;46.956;7.430;2022-08-20T09:23:36;95596.47;;;22.64;64.23
26861;BME280;37676;46.956;7.430;2022-08-20T09:26:02;95602.91;;;22.65;64.12
26861;BME280;37676;46.956;7.430;2022-08-20T09:28:27;95562.56;;;22.43;63.90
26861;BME280;37676;46.956;7.430;2022-08-20T09:30:53;95583.03;;;22.65;64.21
26861;BME280;37676;46.956;7.430;2022-08-20T09:33:18;95590.03;;;22.79;63.93
26861;BME280;37676;46.956;7.430;2022-08-20T09:35:44;95569.06;;;22.67;64.01
26861;BME280;37676;46.956;7.430;2022-08-20T09:38:11;95594.03;;;22.91;64.20
26861;BME280;37676;46.956;7.430;2022-08-20T09:40:37;95581.91;;;22.98;64.19
26861;BME280;37676;46.956;7.430;2022-08-20T09:43:06;95588.91;;;23.04;63.83
26861;BME280;37676;46.956;7.430;2022-08-20T09:45:32;95340.84;;;21.47;63.86
26861;BME280;37676;46.956;7.430;2022-08-20T09:47:57;95566.56;;;23.08;64.08
26861;BME280;37676;46.956;7.430;2022-08-20T09:50:28;95578.50;;;23.22;63.84
26861;BME280;37676;46.956;7.430;2022-08-20T09:52:54;95583.22;;;23.27;63.59
26861;BME280;37676;46.956;7.430;2022-08-20T09:55:23;95396.81;;;21.99;63.31
26861;BME280;37676;46.956;7.430;2022-08-20T09:57:50;95184.91;;;20.69;62.87
26861;BME280;37676;46.956;7.430;2022-08-20T10:00:17;95575.47;;;23.35;62.98
26861;BME280;37676;46.956;7.430;2022-08-20T10:02:43;95563.91;;;23.40;62.62
26861;BME280;37676;46.956;7.430;2022-08-20T10:05:09;95569.94;;;23.44;62.96
26861;BME280;37676;46.956;7.430;2022-08-20T10:07:37;95572.56;;;23.50;62.65
26861;BME280;37676;46.956;7.430;2022-08-20T10:10:06;95502.63;;;23.15;62.71
26861;BME280;37676;46.956;7.430;2022-08-20T10:12:32;95562.69;;;23.66;62.54
26861;BME280;37676;46.956;7.430;2022-08-20T10:14:57;95563.06;;;23.70;62.30
26861;BME280;37676;46.956;7.430;2022-08-20T10:17:22;95569.47;;;23.78;62.48
26861;BME280;37676;46.956;7.430;2022-08-20T10:19:48;95564.31;;;23.84;62.50
26861;BME280;37676;46.956;7.430;2022-08-20T10:22:13;95561.84;;;23.88;62.44
26861;BME280;37676;46.956;7.430;2022-08-20T10:24:38;95548.94;;;23.87;62.48
26861;BME280;37676;46.956;7.430;2022-08-20T10:27:04;95565.56;;;23.98;61.92
26861;BME280;37676;46.956;7.430;2022-08-20T10:29:30;95557.44;;;24.02;61.96
26861;BME280;37676;46.956;7.430;2022-08-20T10:31:55;95560.47;;;24.04;61.92
26861;BME280;37676;46.956;7.430;2022-08-20T10:34:22;95561.22;;;24.05;61.60
26861;BME280;37676;46.956;7.430;2022-08-20T10:36:48;95342.34;;;22.53;61.41
26861;BME280;37676;46.956;7.430;2022-08-20T10:39:14;95595.13;;;24.10;61.40
26861;BME280;37676;46.956;7.430;2022-08-20T10:41:39;95559.84;;;24.13;61.16
26861;BME280;37676;46.956;7.430;2022-08-20T10:44:05;95545.84;;;24.08;61.23
26861;BME280;37676;46.956;7.430;2022-08-20T10:46:32;95548.44;;;24.21;61.06
26861;BME280;37676;46.956;7.430;2022-08-20T10:48:57;95548.03;;;24.24;60.92
26861;BME280;37676;46.956;7.430;2022-08-20T10:51:23;95558.41;;;24.29;61.06
26861;BME280;37676;46.956;7.430;2022-08-20T10:53:48;95542.66;;;24.36;61.15
26861;BME280;37676;46.956;7.430;2022-08-20T10:56:13;95552.47;;;24.42;61.31
26861;BME280;37676;46.956;7.430;2022-08-20T10:58:39;95554.34;;;24.47;61.03
26861;BME280;37676;46.956;7.430;2022-08-20T11:01:04;95548.31;;;24.43;60.47
26861;BME280;37676;46.956;7.430;2022-08-20T11:03:30;95565.09;;;24.57;60.76
26861;BME280;37676;46.956;7.430;2022-08-20T11:05:56;95561.44;;;24.64;60.53
26861;BME280;37676;46.956;7.430;2022-08-20T11:08:21;95465.13;;;24.11;60.44
26861;BME280;37676;46.956;7.430;2022-08-20T11:10:47;95548.22;;;24.83;60.51
26861;BME280;37676;46.956;7.430;2022-08-20T11:13:12;95406.78;;;24.02;60.71
26861;BME280;37676;46.956;7.430;2022-08-20T11:15:40;95541.72;;;25.07;60.75
26861;BME280;37676;46.956;7.430;2022-08-20T11:18:06;95545.88;;;25.14;60.31
26861;BME280;37676;46.956;7.430;2022-08-20T11:20:33;95542.00;;;25.19;59.84
26861;BME280;37676;46.956;7.430;2022-08-20T11:22:59;95345.41;;;23.99;59.63
26861;BME280;37676;46.956;7.430;2022-08-20T11:25:25;95340.84;;;23.96;59.08
26861;BME280;37676;46.956;7.430;2022-08-20T11:27:52;95496.94;;;25.08;59.22
26861;BME280;37676;46.956;7.430;2022-08-20T11:30:25;95533.56;;;25.28;59.09
26861;BME280;37676;46.956;7.430;2022-08-20T11:32:50;95535.69;;;25.45;59.15
26861;BME280;37676;46.956;7.430;2022-08-20T11:35:16;95202.78;;;23.27;58.31
26861;BME280;37676;46.956;7.430;2022-08-20T11:37:42;95537.88;;;25.54;57.95
26861;BME280;37676;46.956;7.430;2022-08-20T11:40:08;95533.41;;;25.61;57.98
26861;BME280;37676;46.956;7.430;2022-08-20T11:42:36;95357.28;;;24.30;58.31
26861;BME280;37676;46.956;7.430;2022-08-20T11:45:01;95537.19;;;25.63;57.97
26861;BME280;37676;46.956;7.430;2022-08-20T11:47:28;95528.97;;;25.67;57.80
26861;BME280;37676;46.956;7.430;2022-08-20T11:50:05;95525.88;;;25.73;57.77
26861;BME280;37676;46.956;7.430;2022-08-20T11:52:31;95502.84;;;25.61;57.86
26861;BME280;37676;46.956;7.430;2022-08-20T11:54:57;95525.19;;;25.82;57.78
26861;BME280;37676;46.956;7.430;2022-08-20T11:57:25;95526.13;;;25.84;57.58
26861;BME280;37676;46.956;7.430;2022-08-20T11:59:53;95367.47;;;24.75;57.30
26861;BME280;37676;46.956;7.430;2022-08-20T12:02:19;95484.06;;;25.58;56.83
26861;BME280;37676;46.956;7.430;2022-08-20T12:04:45;95518.22;;;25.75;56.87
26861;BME280;37676;46.956;7.430;2022-08-20T12:07:12;95532.13;;;25.88;56.51
26861;BME280;37676;46.956;7.430;2022-08-20T12:09:40;95525.69;;;25.88;56.33
26861;BME280;37676;46.956;7.430;2022-08-20T12:12:06;95529.09;;;25.86;56.21
26861;BME280;37676;46.956;7.430;2022-08-20T12:14:31;95505.75;;;25.71;56.38
26861;BME280;37676;46.956;7.430;2022-08-20T12:16:57;95519.16;;;25.78;56.46
26861;BME280;37676;46.956;7.430;2022-08-20T12:19:22;95503.50;;;25.69;56.68
26861;BME280;37676;46.956;7.430;2022-08-20T12:21:48;95439.31;;;25.34;56.84
26861;BME280;37676;46.956;7.430;2022-08-20T12:24:13;95276.41;;;24.23;56.52
26861;BME280;37676;46.956;7.430;2022-08-20T12:26:38;95527.03;;;25.87;56.60
26861;BME280;37676;46.956;7.430;2022-08-20T12:29:04;95514.84;;;25.86;56.71
26861;BME280;37676;46.956;7.430;2022-08-20T12:31:29;95498.88;;;25.74;56.38
26861;BME280;37676;46.956;7.430;2022-08-20T12:33:54;95508.09;;;25.82;56.28
26861;BME280;37676;46.956;7.430;2022-08-20T12:36:20;95509.66;;;25.92;56.19
26861;BME280;37676;46.956;7.430;2022-08-20T12:38:45;95475.72;;;25.70;56.02
26861;BME280;37676;46.956;7.430;2022-08-20T12:41:10;95509.16;;;25.86;55.97
26861;BME280;37676;46.956;7.430;2022-08-20T12:43:36;95312.53;;;24.65;55.81
26861;BME280;37676;46.956;7.430;2022-08-20T12:46:01;95510.75;;;25.97;55.89
26861;BME280;37676;46.956;7.430;2022-08-20T12:48:26;95495.91;;;25.98;54.53
26861;BME280;37676;46.956;7.430;2022-08-20T12:50:51;95500.75;;;26.05;54.25
26861;BME280;37676;46.956;7.430;2022-08-20T12:53:17;95498.47;;;26.04;54.40
26861;BME280;37676;46.956;7.430;2022-08-20T12:55:43;95507.41;;;26.08;54.49
26861;BME280;37676;46.956;7.430;2022-08-20T12:58:09;95328.31;;;24.83;54.50
26861;BME280;37676;46.956;7.430;2022-08-20T13:00:37;95509.81;;;26.11;54.54
26861;BME280;37676;46.956;7.430;2022-08-20T13:03:05;95506.38;;;26.13;53.73
26861;BME280;37676;46.956;7.430;2022-08-20T13:05:31;95501.59;;;26.15;53.66
26861;BME280;37676;46.956;7.430;2022-08-20T13:07:57;95498.91;;;26.17;53.61